Time,TemperatureF,DewpointF,PressureIn,WindDirection,WindDirectionDegrees,WindSpeedMPH,WindSpeedGustMPH,Humidity,HourlyPrecipIn,Conditions,Clouds,dailyrainin,SolarRadiationWatts/m^2,SoftwareType,DateUTC
2013-02-08 00:00:00,32.0,30.0,-100.00,ENE,67,5.0,-999.0,93,-99.99,,,-99.99,0.000000,,2013-02-08 05:00:00,
2013-02-08 00:32:00,32.0,30.0,-100.00,ENE,67,5.0,-999.0,93,-99.99,,,-99.99,0.000000,,2013-02-08 05:32:00,
2013-02-08 00:42:00,32.0,30.0,-100.00,ENE,67,5.0,-999.0,93,-99.99,,,-99.99,0.000000,,2013-02-08 05:42:00,
2013-02-08 00:52:00,32.0,30.0,-100.00,ENE,67,5.0,-999.0,93,-99.99,,,-99.99,0.000000,,2013-02-08 05:52:00,
2013-02-08 03:00:00,31.0,30.0,-100.00,NNW,337,5.0,-999.0,94,-99.99,,,-99.99,0.000000,,2013-02-08 08:00:00,
2013-02-08 03:42:00,31.0,30.0,-100.00,NNW,337,5.0,-999.0,94,-99.99,,,-99.99,0.000000,,2013-02-08 08:42:00,
2013-02-08 03:52:00,31.0,30.0,-100.00,NNW,337,5.0,-999.0,94,-99.99,,,-99.99,0.000000,,2013-02-08 08:52:00,
2013-02-08 06:00:00,28.0,26.0,-100.00,NNW,337,10.0,-999.0,89,-99.99,,,-99.99,0.000000,,2013-02-08 11:00:00,
2013-02-08 06:42:00,28.0,26.0,-100.00,NNW,337,10.0,-999.0,89,-99.99,,,-99.99,0.000000,,2013-02-08 11:42:00,
2013-02-08 06:53:00,28.0,26.0,-100.00,NNW,337,10.0,-999.0,89,-99.99,,,-99.99,0.000000,,2013-02-08 11:53:00,
2013-02-08 09:00:00,27.0,24.0,-100.00,NNW,337,10.0,-999.0,87,-99.99,,,-99.99,24.360001,,2013-02-08 14:00:00,
2013-02-08 09:42:00,27.0,24.0,-100.00,NNW,337,10.0,-999.0,87,-99.99,,,-99.99,24.360001,,2013-02-08 14:42:00,
2013-02-08 09:52:00,27.0,24.0,-100.00,NNW,337,10.0,-999.0,87,-99.99,,,-99.99,24.360001,,2013-02-08 14:52:00,
2013-02-08 12:00:00,27.0,21.0,-100.00,North,0,10.0,-999.0,78,-99.99,,,-99.99,183.279999,,2013-02-08 17:00:00,
2013-02-08 12:42:00,27.0,21.0,-100.00,North,0,10.0,-999.0,78,-99.99,,,-99.99,183.279999,,2013-02-08 17:42:00,
2013-02-08 12:53:00,27.0,21.0,-100.00,North,0,10.0,-999.0,78,-99.99,,,-99.99,183.279999,,2013-02-08 17:53:00,
2013-02-08 15:00:00,29.0,21.0,-100.00,North,0,9.0,-999.0,72,-99.99,,,-99.99,271.440002,,2013-02-08 20:00:00,
2013-02-08 15:42:00,29.0,21.0,-100.00,North,0,9.0,-999.0,72,-99.99,,,-99.99,271.440002,,2013-02-08 20:42:00,
2013-02-08 15:53:00,29.0,21.0,-100.00,North,0,9.0,-999.0,72,-99.99,,,-99.99,271.440002,,2013-02-08 20:53:00,
2013-02-08 18:00:00,29.0,20.0,-100.00,NNW,337,7.0,-999.0,68,-99.99,,,-99.99,30.160000,,2013-02-08 23:00:00,
2013-02-08 18:42:00,29.0,20.0,-100.00,NNW,337,7.0,-999.0,68,-99.99,,,-99.99,30.160000,,2013-02-08 23:42:00,
2013-02-08 18:52:00,29.0,20.0,-100.00,NNW,337,7.0,-999.0,68,-99.99,,,-99.99,30.160000,,2013-02-08 23:52:00,
2013-02-08 21:00:00,25.0,21.0,-100.00,NW,315,3.0,-999.0,81,-99.99,,,-99.99,0.000000,,2013-02-09 02:00:00,
2013-02-08 21:42:00,25.0,21.0,-100.00,NW,315,3.0,-999.0,81,-99.99,,,-99.99,0.000000,,2013-02-09 02:42:00,
2013-02-08 21:53:00,25.0,21.0,-100.00,NW,315,3.0,-999.0,81,-99.99,,,-99.99,0.000000,,2013-02-09 02:53:00,